createdAt,value
2022-08-26T00:00:55.669Z,22.89
2022-08-26T00:05:55.606Z,20.50
2022-08-26T00:10:55.547Z,20.39
2022-08-26T00:15:55.464Z,15.89
2022-08-26T00:20:55.416Z,22.70
2022-08-26T00:25:55.332Z,21.29
2022-08-26T00:30:55.285Z,16.70
2022-08-26T00:35:55.212Z,16.79
2022-08-26T00:40:55.152Z,21.60
2022-08-26T00:45:55.183Z,18.89
2022-08-26T00:50:55.023Z,17.50
2022-08-26T00:55:54.950Z,19.89
2022-08-26T01:00:54.948Z,20.10
2022-08-26T01:05:54.809Z,18.20
2022-08-26T01:10:54.991Z,22.79
2022-08-26T01:15:54.679Z,27.70
2022-08-26T01:20:57.658Z,21.29
2022-08-26T01:25:54.559Z,26.89
2022-08-26T01:30:54.494Z,21.79
2022-08-26T01:35:54.420Z,20.60
2022-08-26T01:40:54.591Z,21.89
2022-08-26T01:45:54.360Z,19.89
2022-08-26T01:50:54.235Z,19.70
2022-08-26T01:55:54.171Z,15.19
2022-08-26T02:00:54.166Z,20.70
2022-08-26T02:05:54.032Z,22.70
2022-08-26T02:10:54.802Z,21.29
2022-08-26T02:15:54.044Z,20.60
2022-08-26T02:20:53.854Z,23.00
2022-08-26T02:25:53.787Z,29.00
2022-08-26T02:30:55.509Z,19.39
2022-08-26T02:35:53.657Z,18.70
2022-08-26T02:40:53.589Z,16.10
2022-08-26T02:45:53.526Z,28.50
2022-08-26T02:50:53.468Z,19.79
2022-08-26T02:55:53.394Z,24.20
2022-08-26T03:00:53.795Z,19.79
2022-08-26T03:05:53.272Z,19.20
2022-08-26T03:10:53.205Z,17.20
2022-08-26T03:15:53.206Z,18.00
2022-08-26T03:20:53.081Z,24.89
2022-08-26T03:25:53.010Z,21.79
2022-08-26T03:30:52.942Z,22.60
2022-08-26T03:35:52.868Z,20.29
2022-08-26T03:40:52.819Z,20.60
2022-08-26T03:45:52.736Z,26.70
2022-08-26T03:50:52.677Z,22.39
2022-08-26T03:55:52.614Z,19.20
2022-08-26T04:00:55.567Z,16.29
2022-08-26T04:05:52.469Z,17.89
2022-08-26T04:10:52.395Z,19.20
2022-08-26T04:15:52.698Z,19.70
2022-08-26T04:20:52.266Z,22.39
2022-08-26T04:25:52.219Z,20.29
2022-08-26T04:30:52.176Z,24.50
2022-08-26T04:35:52.074Z,15.39
2022-08-26T04:40:51.996Z,30.10
2022-08-26T04:45:51.951Z,17.60
2022-08-26T04:50:51.875Z,19.89
2022-08-26T04:55:52.474Z,20.70
2022-08-26T05:00:51.743Z,21.29
2022-08-26T05:05:51.668Z,23.50
2022-08-26T05:10:51.596Z,16.60
2022-08-26T05:15:51.639Z,22.00
2022-08-26T05:20:51.460Z,19.89
2022-08-26T05:25:54.703Z,22.29
2022-08-26T05:30:51.379Z,18.79
2022-08-26T05:35:51.273Z,24.00
2022-08-26T05:40:52.781Z,26.00
2022-08-26T05:45:51.141Z,20.89
2022-08-26T05:50:51.076Z,23.60
2022-08-26T05:55:51.000Z,23.50
2022-08-26T06:00:50.941Z,26.60
2022-08-26T06:05:50.871Z,24.79
2022-08-26T06:10:50.985Z,21.00
2022-08-26T06:15:50.795Z,24.00
2022-08-26T06:20:57.271Z,16.89
2022-08-26T06:25:50.616Z,18.20
2022-08-26T06:30:50.579Z,22.10
2022-08-26T06:35:50.490Z,22.00
2022-08-26T06:40:50.435Z,24.50
2022-08-26T06:45:50.360Z,18.89
2022-08-26T06:50:50.294Z,25.39
2022-08-26T06:55:51.813Z,19.39
2022-08-26T07:00:50.172Z,21.29
2022-08-26T07:05:50.092Z,20.79
2022-08-26T07:10:50.033Z,27.29
2022-08-26T07:15:49.998Z,23.79
2022-08-26T07:20:49.903Z,26.79
2022-08-26T07:25:49.863Z,22.60
2022-08-26T07:30:49.813Z,20.20
2022-08-26T07:35:49.710Z,22.29
2022-08-26T07:40:49.645Z,23.50
2022-08-26T07:45:49.614Z,17.50
2022-08-26T07:50:50.583Z,21.50
2022-08-26T07:55:49.459Z,20.00
2022-08-26T08:00:49.390Z,18.50
2022-08-26T08:05:49.321Z,17.10
2022-08-26T08:10:49.289Z,28.60
2022-08-26T08:15:50.296Z,30.89
2022-08-26T08:20:59.468Z,16.79
2022-08-26T08:25:50.115Z,16.89
2022-08-26T08:30:49.094Z,19.60
2022-08-26T08:35:48.948Z,16.50
2022-08-26T08:40:48.889Z,20.60
2022-08-26T08:45:49.661Z,21.00
2022-08-26T08:50:48.771Z,19.79
2022-08-26T08:55:48.688Z,20.10
2022-08-26T09:00:48.650Z,22.79
2022-08-26T09:05:48.990Z,17.60
2022-08-26T09:10:48.493Z,26.89
2022-08-26T09:15:48.424Z,20.50
2022-08-26T09:20:48.389Z,25.10
2022-08-26T09:25:48.349Z,21.89
2022-08-26T09:30:48.306Z,19.70
2022-08-26T09:35:48.718Z,19.39
2022-08-26T09:40:48.141Z,27.10
2022-08-26T09:45:50.275Z,32.29
2022-08-26T09:50:48.015Z,17.20
2022-08-26T09:55:47.943Z,21.60
2022-08-26T10:00:47.910Z,21.50
2022-08-26T10:05:47.812Z,23.00
2022-08-26T10:10:47.762Z,17.79
2022-08-26T10:15:50.669Z,21.10
2022-08-26T10:20:47.642Z,21.20
2022-08-26T10:25:47.579Z,20.00
2022-08-26T10:30:47.514Z,18.50
2022-08-26T10:35:47.446Z,13.50
2022-08-26T10:40:49.123Z,12.10
2022-08-26T10:45:47.350Z,16.89
2022-08-26T10:50:47.455Z,16.20
2022-08-26T10:55:47.184Z,12.00
2022-08-26T11:00:47.195Z,16.10
2022-08-26T11:05:47.056Z,15.60
2022-08-26T11:10:47.006Z,14.69
2022-08-26T11:15:46.918Z,16.39
2022-08-26T11:20:47.234Z,16.20
2022-08-26T11:25:46.781Z,17.70
2022-08-26T11:30:46.731Z,17.50
2022-08-26T11:35:46.657Z,14.80
2022-08-26T11:40:46.613Z,10.89
2022-08-26T11:45:46.567Z,11.60
2022-08-26T11:50:46.474Z,13.60
2022-08-26T11:55:47.335Z,15.50
2022-08-26T12:00:46.325Z,19.50
2022-08-26T12:05:46.248Z,19.79
2022-08-26T12:10:46.189Z,18.50
2022-08-26T12:15:46.116Z,14.10
2022-08-26T12:20:46.206Z,15.19
2022-08-26T12:25:46.013Z,17.89
2022-08-26T12:30:45.952Z,12.89
2022-08-26T12:35:45.865Z,15.10
2022-08-26T12:40:45.816Z,13.10
2022-08-26T12:45:45.804Z,18.60
2022-08-26T12:50:46.053Z,15.50
2022-08-26T12:55:45.615Z,18.29
2022-08-26T13:00:45.801Z,20.70
2022-08-26T13:05:45.488Z,11.69
2022-08-26T13:10:45.446Z,16.89
2022-08-26T13:15:45.368Z,20.50
2022-08-26T13:20:45.327Z,16.20
2022-08-26T13:25:45.240Z,23.10
2022-08-26T13:30:45.199Z,13.39
2022-08-26T13:35:45.114Z,11.89
2022-08-26T13:40:45.054Z,10.30
2022-08-26T13:45:44.991Z,9.30
2022-08-26T13:50:45.054Z,10.39
2022-08-26T13:55:44.857Z,6.69
2022-08-26T14:00:44.890Z,7.90
2022-08-26T14:05:44.743Z,4.19
2022-08-26T14:10:44.726Z,8.69
2022-08-26T14:15:44.857Z,6.50
2022-08-26T14:20:44.545Z,6.50
2022-08-26T14:25:44.477Z,7.59
2022-08-26T14:30:44.428Z,6.30
2022-08-26T14:35:48.790Z,8.10
2022-08-26T14:40:44.286Z,6.59
2022-08-26T14:45:44.257Z,7.09
2022-08-26T14:50:44.157Z,7.00
2022-08-26T14:55:44.094Z,5.00
2022-08-26T15:00:44.030Z,7.80
2022-08-26T15:05:47.388Z,5.69
2022-08-26T15:10:43.901Z,5.00
2022-08-26T15:15:43.846Z,8.10
2022-08-26T15:20:43.794Z,9.60
2022-08-26T15:25:43.717Z,7.30
2022-08-26T15:30:43.651Z,7.19
2022-08-26T15:35:43.583Z,10.19
2022-08-26T15:40:43.537Z,8.00
2022-08-26T15:45:43.445Z,9.30
2022-08-26T15:50:43.399Z,8.50
2022-08-26T15:55:43.317Z,9.30
2022-08-26T16:00:43.259Z,18.79
2022-08-26T16:05:43.294Z,9.00
2022-08-26T16:10:46.586Z,9.50
2022-08-26T16:15:43.107Z,6.59
2022-08-26T16:20:43.009Z,10.30
2022-08-26T16:25:44.944Z,8.10
2022-08-26T16:30:42.870Z,10.19
2022-08-26T16:35:42.818Z,7.19
2022-08-26T16:40:42.739Z,10.39
2022-08-26T16:45:42.678Z,8.39
2022-08-26T16:50:42.618Z,11.19
2022-08-26T16:55:42.544Z,6.59
2022-08-26T17:00:42.483Z,15.50
2022-08-26T17:05:42.404Z,18.79
2022-08-26T17:15:42.296Z,10.80
2022-08-26T17:20:42.218Z,10.00
2022-08-26T17:25:42.144Z,11.19
2022-08-26T17:30:42.139Z,5.50
2022-08-26T17:35:42.020Z,11.50
2022-08-26T17:40:41.953Z,9.00
2022-08-26T17:45:41.897Z,7.40
2022-08-26T17:50:41.837Z,14.50
2022-08-26T17:55:41.754Z,24.50
2022-08-26T18:00:41.682Z,10.30
2022-08-26T18:05:41.608Z,16.60
2022-08-26T18:10:41.560Z,9.00
2022-08-26T18:15:41.573Z,16.70
2022-08-26T18:20:41.417Z,15.39
2022-08-26T18:25:41.344Z,11.60
2022-08-26T18:30:41.347Z,8.39
2022-08-26T18:35:41.205Z,12.50
2022-08-26T18:40:41.157Z,9.10
2022-08-26T18:45:41.265Z,11.10
2022-08-26T18:50:42.341Z,8.00
2022-08-26T18:55:40.951Z,9.10
2022-08-26T19:00:40.893Z,11.19
2022-08-26T19:05:40.834Z,10.10
2022-08-26T19:10:40.776Z,10.00
2022-08-26T19:15:40.700Z,10.00
2022-08-26T19:20:43.561Z,15.10
2022-08-26T19:25:40.582Z,7.50
2022-08-26T19:30:40.627Z,10.00
2022-08-26T19:35:40.448Z,10.10
2022-08-26T19:40:40.417Z,10.19
2022-08-26T19:45:40.347Z,13.10
2022-08-26T19:50:40.270Z,10.10
2022-08-26T19:55:40.197Z,13.50
2022-08-26T20:00:40.141Z,6.90
2022-08-26T20:05:40.083Z,14.30
2022-08-26T20:10:40.014Z,11.10
2022-08-26T20:15:39.945Z,10.50
2022-08-26T20:20:39.893Z,10.39
2022-08-26T20:25:39.826Z,10.10
2022-08-26T20:30:39.771Z,12.00
2022-08-26T20:35:39.693Z,10.39
2022-08-26T20:40:39.629Z,10.39
2022-08-26T20:45:39.642Z,11.69
2022-08-26T20:50:39.512Z,9.80
2022-08-26T20:55:39.500Z,10.39
2022-08-26T21:00:39.423Z,12.30
2022-08-26T21:05:39.307Z,13.19
2022-08-26T21:10:39.251Z,10.89
2022-08-26T21:15:39.183Z,12.69
2022-08-26T21:20:39.127Z,18.50
2022-08-26T21:25:39.044Z,13.89
2022-08-26T21:30:39.004Z,10.50
2022-08-26T21:35:38.918Z,11.39
2022-08-26T21:40:38.867Z,11.80
2022-08-26T21:45:38.827Z,11.00
2022-08-26T21:50:38.734Z,11.00
2022-08-26T21:55:38.664Z,14.10
2022-08-26T22:00:38.604Z,12.30
2022-08-26T22:05:38.519Z,10.89
2022-08-26T22:10:38.475Z,10.69
2022-08-26T22:15:38.389Z,10.89
2022-08-26T22:20:38.332Z,11.10
2022-08-26T22:25:38.261Z,7.69
2022-08-26T22:30:38.211Z,7.90
2022-08-26T22:35:38.139Z,7.19
2022-08-26T22:40:38.069Z,9.30
2022-08-26T22:45:38.032Z,10.10
2022-08-26T22:50:37.947Z,9.39
2022-08-26T22:55:37.874Z,7.09
2022-08-26T23:00:37.827Z,10.89
2022-08-26T23:05:37.737Z,11.00
2022-08-26T23:10:37.677Z,10.60
2022-08-26T23:15:37.794Z,12.60
2022-08-26T23:20:37.545Z,12.30
2022-08-26T23:25:37.473Z,7.40
2022-08-26T23:30:37.413Z,8.80
2022-08-26T23:35:37.341Z,10.89
2022-08-26T23:40:37.380Z,11.69
2022-08-26T23:45:37.288Z,7.19
2022-08-26T23:50:37.163Z,9.69
2022-08-26T23:55:37.091Z,8.60
